sensor_id;sensor_type;location;lat;lon;timestamp;pressure;altitude;pressure_sealevel;temperature;humidity
24558;BME280;12726;49.148;8.582;2023-04-01T00:01:48;98964.66;;;9.65;86.64
24558;BME280;12726;49.148;8.582;2023-04-01T00:04:34;98960.56;;;9.63;86.91
24558;BME280;12726;49.148;8.582;2023-04-01T00:07:19;98964.06;;;9.63;87.03
24558;BME280;12726;49.148;8.582;2023-04-01T00:10:06;98953.78;;;9.60;87.14
24558;BME280;12726;49.148;8.582;2023-04-01T00:12:51;98957.22;;;9.56;87.92
24558;BME280;12726;49.148;8.582;2023-04-01T00:15:38;98942.97;;;9.55;87.73
24558;BME280;12726;49.148;8.582;2023-04-01T00:18:26;98943.53;;;9.57;87.63
24558;BME280;12726;49.148;8.582;2023-04-01T00:21:11;98951.38;;;9.59;88.03
24558;BME280;12726;49.148;8.582;2023-04-01T00:23:57;98947.75;;;9.53;88.44
24558;BME280;12726;49.148;8.582;2023-04-01T00:26:43;98948.91;;;9.57;87.85
24558;BME280;12726;49.148;8.582;2023-04-01T00:29:28;98947.59;;;9.60;88.00
24558;BME280;12726;49.148;8.582;2023-04-01T00:32:15;98928.78;;;9.60;88.10
24558;BME280;12726;49.148;8.582;2023-04-01T00:35:01;98945.19;;;9.58;88.14
24558;BME280;12726;49.148;8.582;2023-04-01T00:37:46;98938.41;;;9.56;88.50
24558;BME280;12726;49.148;8.582;2023-04-01T00:40:34;98944.59;;;9.56;88.43
24558;BME280;12726;49.148;8.582;2023-04-01T00:43:20;98949.38;;;9.54;88.69
24558;BME280;12726;49.148;8.582;2023-04-01T00:46:05;98946.47;;;9.56;88.59
24558;BME280;12726;49.148;8.582;2023-04-01T00:48:54;98931.63;;;9.53;88.74
24558;BME280;12726;49.148;8.582;2023-04-01T00:51:41;98944.00;;;9.54;89.02
24558;BME280;12726;49.148;8.582;2023-04-01T00:54:29;98945.06;;;9.53;89.19
24558;BME280;12726;49.148;8.582;2023-04-01T00:57:18;98946.47;;;9.56;89.22
24558;BME280;12726;49.148;8.582;2023-04-01T01:00:09;98940.63;;;9.59;88.50
24558;BME280;12726;49.148;8.582;2023-04-01T01:02:55;98934.50;;;9.63;88.07
24558;BME280;12726;49.148;8.582;2023-04-01T01:06:00;98933.13;;;9.61;88.77
24558;BME280;12726;49.148;8.582;2023-04-01T01:09:02;98931.47;;;9.60;88.18
24558;BME280;12726;49.148;8.582;2023-04-01T01:11:56;98940.28;;;9.55;88.86
24558;BME280;12726;49.148;8.582;2023-04-01T01:14:55;98953.94;;;9.54;89.46
24558;BME280;12726;49.148;8.582;2023-04-01T01:17:50;98949.72;;;9.58;89.41
24558;BME280;12726;49.148;8.582;2023-04-01T01:21:14;98924.72;;;9.57;89.12
24558;BME280;12726;49.148;8.582;2023-04-01T01:24:28;98926.09;;;9.60;89.09
24558;BME280;12726;49.148;8.582;2023-04-01T01:27:17;98917.34;;;9.64;88.62
24558;BME280;12726;49.148;8.582;2023-04-01T01:30:14;98919.69;;;9.61;88.80
24558;BME280;12726;49.148;8.582;2023-04-01T01:36:13;98915.69;;;9.63;88.48
24558;BME280;12726;49.148;8.582;2023-04-01T01:39:01;98925.94;;;9.66;87.81
24558;BME280;12726;49.148;8.582;2023-04-01T01:41:48;98922.31;;;9.72;87.26
24558;BME280;12726;49.148;8.582;2023-04-01T01:44:34;98905.94;;;9.74;87.14
24558;BME280;12726;49.148;8.582;2023-04-01T01:47:22;98909.94;;;9.71;87.45
24558;BME280;12726;49.148;8.582;2023-04-01T01:50:09;98911.56;;;9.72;87.38
24558;BME280;12726;49.148;8.582;2023-04-01T01:53:04;98912.63;;;9.71;87.70
24558;BME280;12726;49.148;8.582;2023-04-01T01:55:49;98906.91;;;9.68;87.94
24558;BME280;12726;49.148;8.582;2023-04-01T01:58:38;98913.59;;;9.65;88.58
24558;BME280;12726;49.148;8.582;2023-04-01T02:01:28;98911.63;;;9.61;88.79
24558;BME280;12726;49.148;8.582;2023-04-01T02:04:16;98917.81;;;9.61;88.85
24558;BME280;12726;49.148;8.582;2023-04-01T02:07:04;98910.25;;;9.58;89.39
24558;BME280;12726;49.148;8.582;2023-04-01T02:09:53;98922.88;;;9.58;89.52
24558;BME280;12726;49.148;8.582;2023-04-01T02:12:39;98920.88;;;9.53;89.83
24558;BME280;12726;49.148;8.582;2023-04-01T02:15:28;98912.28;;;9.51;90.23
24558;BME280;12726;49.148;8.582;2023-04-01T02:18:19;98921.16;;;9.52;90.56
24558;BME280;12726;49.148;8.582;2023-04-01T02:21:05;98912.97;;;9.47;90.91
24558;BME280;12726;49.148;8.582;2023-04-01T02:23:53;98914.53;;;9.42;90.95
24558;BME280;12726;49.148;8.582;2023-04-01T02:26:41;98907.44;;;9.36;89.55
24558;BME280;12726;49.148;8.582;2023-04-01T02:29:27;98908.28;;;9.25;90.12
24558;BME280;12726;49.148;8.582;2023-04-01T02:32:12;98921.72;;;9.25;88.49
24558;BME280;12726;49.148;8.582;2023-04-01T02:34:59;98917.53;;;9.29;88.25
24558;BME280;12726;49.148;8.582;2023-04-01T02:37:50;98913.78;;;9.30;87.68
24558;BME280;12726;49.148;8.582;2023-04-01T02:40:45;98914.84;;;9.29;87.07
24558;BME280;12726;49.148;8.582;2023-04-01T02:43:32;98925.66;;;9.34;85.91
24558;BME280;12726;49.148;8.582;2023-04-01T02:46:18;98919.47;;;9.34;85.82
24558;BME280;12726;49.148;8.582;2023-04-01T02:49:03;98915.31;;;9.26;85.80
24558;BME280;12726;49.148;8.582;2023-04-01T02:51:49;98915.66;;;9.30;85.50
24558;BME280;12726;49.148;8.582;2023-04-01T02:54:35;98913.78;;;9.30;85.35
24558;BME280;12726;49.148;8.582;2023-04-01T02:57:20;98909.69;;;9.28;85.57
24558;BME280;12726;49.148;8.582;2023-04-01T03:00:08;98904.09;;;9.29;84.87
24558;BME280;12726;49.148;8.582;2023-04-01T03:02:55;98922.53;;;9.26;85.15
24558;BME280;12726;49.148;8.582;2023-04-01T03:05:40;98917.97;;;9.26;85.17
24558;BME280;12726;49.148;8.582;2023-04-01T03:08:26;98916.19;;;9.32;85.08
24558;BME280;12726;49.148;8.582;2023-04-01T03:11:11;98880.81;;;9.35;84.05
24558;BME280;12726;49.148;8.582;2023-04-01T03:13:57;98920.28;;;9.34;84.39
24558;BME280;12726;49.148;8.582;2023-04-01T03:16:43;98910.38;;;9.35;84.16
24558;BME280;12726;49.148;8.582;2023-04-01T03:19:29;98921.09;;;9.35;84.22
24558;BME280;12726;49.148;8.582;2023-04-01T03:22:14;98920.06;;;9.36;84.25
24558;BME280;12726;49.148;8.582;2023-04-01T03:24:59;98920.88;;;9.36;84.58
24558;BME280;12726;49.148;8.582;2023-04-01T03:27:45;98917.13;;;9.37;84.51
24558;BME280;12726;49.148;8.582;2023-04-01T03:30:30;98925.97;;;9.38;84.11
24558;BME280;12726;49.148;8.582;2023-04-01T03:33:17;98932.97;;;9.39;83.86
24558;BME280;12726;49.148;8.582;2023-04-01T03:36:03;98930.88;;;9.41;84.03
24558;BME280;12726;49.148;8.582;2023-04-01T03:38:50;98929.47;;;9.38;84.35
24558;BME280;12726;49.148;8.582;2023-04-01T03:41:36;98925.31;;;9.31;85.87
24558;BME280;12726;49.148;8.582;2023-04-01T03:44:22;98935.38;;;9.24;87.39
24558;BME280;12726;49.148;8.582;2023-04-01T03:47:07;98935.66;;;9.22;88.00
24558;BME280;12726;49.148;8.582;2023-04-01T03:49:55;98929.00;;;9.13;89.38
24558;BME280;12726;49.148;8.582;2023-04-01T03:52:41;98940.84;;;9.00;90.78
24558;BME280;12726;49.148;8.582;2023-04-01T03:55:26;98929.19;;;8.95;92.12
24558;BME280;12726;49.148;8.582;2023-04-01T03:58:11;98929.66;;;8.92;91.63
24558;BME280;12726;49.148;8.582;2023-04-01T04:00:56;98936.66;;;8.93;91.63
24558;BME280;12726;49.148;8.582;2023-04-01T04:03:42;98931.66;;;8.85;92.50
24558;BME280;12726;49.148;8.582;2023-04-01T04:06:29;98924.44;;;8.85;92.60
24558;BME280;12726;49.148;8.582;2023-04-01T04:09:14;98921.63;;;8.92;90.62
24558;BME280;12726;49.148;8.582;2023-04-01T04:12:00;98910.16;;;8.96;90.49
24558;BME280;12726;49.148;8.582;2023-04-01T04:14:46;98914.69;;;9.08;88.34
24558;BME280;12726;49.148;8.582;2023-04-01T04:17:31;98914.69;;;9.08;88.54
24558;BME280;12726;49.148;8.582;2023-04-01T04:20:16;98917.38;;;9.08;88.15
24558;BME280;12726;49.148;8.582;2023-04-01T04:23:03;98920.72;;;9.15;86.79
24558;BME280;12726;49.148;8.582;2023-04-01T04:25:56;98914.00;;;9.29;85.93
24558;BME280;12726;49.148;8.582;2023-04-01T04:28:41;98907.81;;;9.28;86.13
24558;BME280;12726;49.148;8.582;2023-04-01T04:31:27;98925.56;;;9.29;86.02
24558;BME280;12726;49.148;8.582;2023-04-01T04:34:13;98911.09;;;9.30;85.61
24558;BME280;12726;49.148;8.582;2023-04-01T04:36:58;98914.09;;;9.34;85.25
24558;BME280;12726;49.148;8.582;2023-04-01T04:39:45;98914.34;;;9.32;85.69
24558;BME280;12726;49.148;8.582;2023-04-01T04:42:30;98912.00;;;9.36;85.70
24558;BME280;12726;49.148;8.582;2023-04-01T04:45:15;98914.44;;;9.37;85.49
24558;BME280;12726;49.148;8.582;2023-04-01T04:48:01;98901.56;;;9.39;85.01
24558;BME280;12726;49.148;8.582;2023-04-01T04:50:47;98896.44;;;9.38;85.12
24558;BME280;12726;49.148;8.582;2023-04-01T04:53:33;98895.72;;;9.42;84.06
24558;BME280;12726;49.148;8.582;2023-04-01T04:56:21;98900.28;;;9.42;84.56
24558;BME280;12726;49.148;8.582;2023-04-01T04:59:06;98895.97;;;9.41;84.60
24558;BME280;12726;49.148;8.582;2023-04-01T05:01:54;98887.44;;;9.44;84.51
24558;BME280;12726;49.148;8.582;2023-04-01T05:04:40;98884.25;;;9.47;84.21
24558;BME280;12726;49.148;8.582;2023-04-01T05:07:26;98871.41;;;9.49;84.26
24558;BME280;12726;49.148;8.582;2023-04-01T05:10:11;98887.59;;;9.54;83.72
24558;BME280;12726;49.148;8.582;2023-04-01T05:12:58;98880.34;;;9.55;83.79
24558;BME280;12726;49.148;8.582;2023-04-01T05:15:43;98889.00;;;9.57;83.50
24558;BME280;12726;49.148;8.582;2023-04-01T05:18:29;98882.56;;;9.58;83.29
24558;BME280;12726;49.148;8.582;2023-04-01T05:21:15;98886.97;;;9.64;82.64
24558;BME280;12726;49.148;8.582;2023-04-01T05:24:00;98859.28;;;9.63;83.14
24558;BME280;12726;49.148;8.582;2023-04-01T05:26:46;98877.59;;;9.66;82.82
24558;BME280;12726;49.148;8.582;2023-04-01T05:29:32;98875.97;;;9.65;82.91
24558;BME280;12726;49.148;8.582;2023-04-01T05:32:18;98881.09;;;9.67;83.54
24558;BME280;12726;49.148;8.582;2023-04-01T05:35:05;98883.22;;;9.65;83.17
24558;BME280;12726;49.148;8.582;2023-04-01T05:37:50;98883.94;;;9.60;83.71
24558;BME280;12726;49.148;8.582;2023-04-01T05:40:35;98883.38;;;9.58;83.86
24558;BME280;12726;49.148;8.582;2023-04-01T05:43:21;98875.78;;;9.55;84.39
24558;BME280;12726;49.148;8.582;2023-04-01T05:46:08;98891.09;;;9.55;83.19
24558;BME280;12726;49.148;8.582;2023-04-01T05:48:53;98887.00;;;9.52;84.21
24558;BME280;12726;49.148;8.582;2023-04-01T05:51:38;98878.97;;;9.52;83.37
24558;BME280;12726;49.148;8.582;2023-04-01T05:54:24;98880.03;;;9.51;82.50
24558;BME280;12726;49.148;8.582;2023-04-01T05:57:09;98892.88;;;9.49;82.94
24558;BME280;12726;49.148;8.582;2023-04-01T05:59:55;98895.66;;;9.54;82.86
24558;BME280;12726;49.148;8.582;2023-04-01T06:02:41;98891.34;;;9.53;83.01
24558;BME280;12726;49.148;8.582;2023-04-01T06:05:29;98892.88;;;9.49;83.59
24558;BME280;12726;49.148;8.582;2023-04-01T06:08:16;98903.22;;;9.40;85.28
24558;BME280;12726;49.148;8.582;2023-04-01T06:11:12;98895.06;;;9.35;85.86
24558;BME280;12726;49.148;8.582;2023-04-01T06:14:10;98896.03;;;9.29;87.11
24558;BME280;12726;49.148;8.582;2023-04-01T06:17:07;98893.00;;;9.26;88.06
24558;BME280;12726;49.148;8.582;2023-04-01T06:20:09;98906.09;;;9.22;87.80
24558;BME280;12726;49.148;8.582;2023-04-01T06:23:17;98912.66;;;9.15;88.88
24558;BME280;12726;49.148;8.582;2023-04-01T06:26:24;98890.38;;;9.14;89.54
24558;BME280;12726;49.148;8.582;2023-04-01T06:29:50;98914.78;;;9.13;90.19
24558;BME280;12726;49.148;8.582;2023-04-01T06:32:49;98896.78;;;9.13;91.03
24558;BME280;12726;49.148;8.582;2023-04-01T06:35:59;98916.41;;;9.14;91.56
24558;BME280;12726;49.148;8.582;2023-04-01T06:42:07;98899.28;;;9.03;93.21
24558;BME280;12726;49.148;8.582;2023-04-01T06:45:03;98902.53;;;9.05;92.65
24558;BME280;12726;49.148;8.582;2023-04-01T06:48:05;98914.81;;;9.01;92.79
24558;BME280;12726;49.148;8.582;2023-04-01T06:50:58;98913.50;;;9.03;92.21
24558;BME280;12726;49.148;8.582;2023-04-01T06:53:52;98905.72;;;9.02;92.60
24558;BME280;12726;49.148;8.582;2023-04-01T06:56:41;98899.28;;;9.03;92.46
24558;BME280;12726;49.148;8.582;2023-04-01T06:59:28;98907.91;;;9.05;93.55
24558;BME280;12726;49.148;8.582;2023-04-01T07:02:22;98901.72;;;9.04;94.63
24558;BME280;12726;49.148;8.582;2023-04-01T07:05:11;98905.22;;;9.05;94.51
24558;BME280;12726;49.148;8.582;2023-04-01T07:08:01;98892.31;;;9.02;95.23
24558;BME280;12726;49.148;8.582;2023-04-01T07:10:50;98909.78;;;9.04;95.90
24558;BME280;12726;49.148;8.582;2023-04-01T07:13:41;98899.53;;;9.01;95.89
24558;BME280;12726;49.148;8.582;2023-04-01T07:16:32;98908.06;;;8.98;96.54
24558;BME280;12726;49.148;8.582;2023-04-01T07:19:24;98903.28;;;9.00;96.10
24558;BME280;12726;49.148;8.582;2023-04-01T07:22:21;98919.47;;;9.06;96.93
24558;BME280;12726;49.148;8.582;2023-04-01T07:25:14;98908.72;;;9.06;97.56
24558;BME280;12726;49.148;8.582;2023-04-01T07:28:02;98915.72;;;9.07;96.34
24558;BME280;12726;49.148;8.582;2023-04-01T07:30:55;98901.88;;;9.26;96.15
24558;BME280;12726;49.148;8.582;2023-04-01T07:33:50;98917.75;;;9.28;96.22
24558;BME280;12726;49.148;8.582;2023-04-01T07:36:42;98913.88;;;9.35;96.68
24558;BME280;12726;49.148;8.582;2023-04-01T07:39:37;98921.88;;;9.19;98.00
24558;BME280;12726;49.148;8.582;2023-04-01T07:42:35;98928.19;;;9.13;99.82
24558;BME280;12726;49.148;8.582;2023-04-01T07:45:28;98916.78;;;9.06;100.00
24558;BME280;12726;49.148;8.582;2023-04-01T07:48:22;98912.75;;;8.91;100.00
24558;BME280;12726;49.148;8.582;2023-04-01T07:51:15;98918.03;;;8.86;100.00
24558;BME280;12726;49.148;8.582;2023-04-01T07:54:05;98912.66;;;8.86;100.00
24558;BME280;12726;49.148;8.582;2023-04-01T07:56:57;98894.69;;;8.87;100.00
24558;BME280;12726;49.148;8.582;2023-04-01T07:59:52;98912.75;;;8.91;100.00
24558;BME280;12726;49.148;8.582;2023-04-01T08:02:53;98907.84;;;8.88;100.00
24558;BME280;12726;49.148;8.582;2023-04-01T08:05:50;98917.06;;;8.92;100.00
24558;BME280;12726;49.148;8.582;2023-04-01T08:08:48;98920.59;;;9.10;100.00
24558;BME280;12726;49.148;8.582;2023-04-01T08:11:43;98923.19;;;9.16;100.00
24558;BME280;12726;49.148;8.582;2023-04-01T08:14:40;98926.78;;;9.10;100.00
24558;BME280;12726;49.148;8.582;2023-04-01T08:17:34;98921.34;;;9.05;100.00
24558;BME280;12726;49.148;8.582;2023-04-01T08:20:27;98924.59;;;9.07;100.00
24558;BME280;12726;49.148;8.582;2023-04-01T08:23:16;98925.41;;;9.08;100.00
24558;BME280;12726;49.148;8.582;2023-04-01T08:26:05;98924.25;;;9.03;100.00
24558;BME280;12726;49.148;8.582;2023-04-01T08:28:57;98929.63;;;9.03;100.00
24558;BME280;12726;49.148;8.582;2023-04-01T08:31:48;98936.63;;;9.04;100.00
24558;BME280;12726;49.148;8.582;2023-04-01T08:34:40;98922.59;;;9.14;100.00
24558;BME280;12726;49.148;8.582;2023-04-01T08:37:30;98921.88;;;9.19;100.00
24558;BME280;12726;49.148;8.582;2023-04-01T08:40:37;98927.31;;;9.24;100.00
24558;BME280;12726;49.148;8.582;2023-04-01T08:43:40;98924.94;;;9.39;100.00
24558;BME280;12726;49.148;8.582;2023-04-01T08:46:42;98920.38;;;9.39;100.00
24558;BME280;12726;49.148;8.582;2023-04-01T08:49:47;98925.28;;;9.42;100.00
24558;BME280;12726;49.148;8.582;2023-04-01T08:52:36;98934.59;;;9.52;100.00
24558;BME280;12726;49.148;8.582;2023-04-01T08:55:42;98933.22;;;9.66;100.00
24558;BME280;12726;49.148;8.582;2023-04-01T09:02:04;98942.09;;;9.83;99.88
24558;BME280;12726;49.148;8.582;2023-04-01T09:05:20;98934.19;;;9.76;99.72
24558;BME280;12726;49.148;8.582;2023-04-01T09:08:15;98925.97;;;9.83;99.61
24558;BME280;12726;49.148;8.582;2023-04-01T09:11:08;98931.19;;;9.90;98.12
24558;BME280;12726;49.148;8.582;2023-04-01T09:14:21;98928.34;;;9.96;98.02
24558;BME280;12726;49.148;8.582;2023-04-01T09:17:20;98937.06;;;10.03;98.13
24558;BME280;12726;49.148;8.582;2023-04-01T09:20:35;98934.38;;;10.03;98.96
24558;BME280;12726;49.148;8.582;2023-04-01T09:23:40;98939.19;;;10.18;98.36
24558;BME280;12726;49.148;8.582;2023-04-01T09:26:58;98932.81;;;9.91;97.50
24558;BME280;12726;49.148;8.582;2023-04-01T09:30:13;98943.09;;;9.94;98.47
24558;BME280;12726;49.148;8.582;2023-04-01T09:36:45;98944.66;;;10.06;98.24
24558;BME280;12726;49.148;8.582;2023-04-01T09:39:35;98941.22;;;9.94;98.03
24558;BME280;12726;49.148;8.582;2023-04-01T09:42:42;98952.22;;;9.93;98.63
24558;BME280;12726;49.148;8.582;2023-04-01T09:45:43;98958.97;;;9.95;99.07
24558;BME280;12726;49.148;8.582;2023-04-01T09:51:48;98955.31;;;10.01;98.15
24558;BME280;12726;49.148;8.582;2023-04-01T09:54:54;98958.66;;;9.92;97.16
24558;BME280;12726;49.148;8.582;2023-04-01T09:58:06;98948.56;;;9.99;99.12
24558;BME280;12726;49.148;8.582;2023-04-01T10:01:15;98958.31;;;9.88;99.31
24558;BME280;12726;49.148;8.582;2023-04-01T10:04:23;98962.88;;;9.88;99.15
24558;BME280;12726;49.148;8.582;2023-04-01T10:11:01;98976.81;;;9.85;100.00
24558;BME280;12726;49.148;8.582;2023-04-01T10:17:44;98975.19;;;10.00;99.89
24558;BME280;12726;49.148;8.582;2023-04-01T10:20:59;98962.50;;;10.12;100.00
24558;BME280;12726;49.148;8.582;2023-04-01T10:24:15;98970.00;;;10.27;98.80
24558;BME280;12726;49.148;8.582;2023-04-01T10:27:20;98974.50;;;10.22;97.94
24558;BME280;12726;49.148;8.582;2023-04-01T10:30:29;98965.44;;;10.28;97.61
24558;BME280;12726;49.148;8.582;2023-04-01T10:33:53;98987.13;;;10.21;98.70
24558;BME280;12726;49.148;8.582;2023-04-01T10:36:52;98980.53;;;10.29;98.42
24558;BME280;12726;49.148;8.582;2023-04-01T10:43:22;98991.94;;;10.19;99.57
24558;BME280;12726;49.148;8.582;2023-04-01T10:46:41;98988.78;;;10.22;100.00
24558;BME280;12726;49.148;8.582;2023-04-01T10:50:04;98980.78;;;10.44;98.01
24558;BME280;12726;49.148;8.582;2023-04-01T10:53:27;98987.69;;;10.23;99.21
24558;BME280;12726;49.148;8.582;2023-04-01T10:56:42;98996.97;;;10.15;100.00
24558;BME280;12726;49.148;8.582;2023-04-01T10:59:51;98993.19;;;10.00;100.00
24558;BME280;12726;49.148;8.582;2023-04-01T11:16:52;98991.34;;;10.00;100.00
24558;BME280;12726;49.148;8.582;2023-04-01T11:20:02;99000.75;;;10.03;100.00
24558;BME280;12726;49.148;8.582;2023-04-01T11:23:10;98982.09;;;9.96;100.00
24558;BME280;12726;49.148;8.582;2023-04-01T11:26:06;98990.09;;;9.91;100.00
24558;BME280;12726;49.148;8.582;2023-04-01T11:29:04;99004.50;;;9.85;100.00
24558;BME280;12726;49.148;8.582;2023-04-01T11:32:07;99004.28;;;9.87;100.00
24558;BME280;12726;49.148;8.582;2023-04-01T11:38:14;99005.84;;;9.99;100.00
24558;BME280;12726;49.148;8.582;2023-04-01T11:41:15;99018.53;;;10.04;100.00
24558;BME280;12726;49.148;8.582;2023-04-01T11:44:16;99023.00;;;9.98;100.00
24558;BME280;12726;49.148;8.582;2023-04-01T11:47:19;99023.75;;;9.94;100.00
24558;BME280;12726;49.148;8.582;2023-04-01T11:50:17;99022.81;;;9.88;100.00
24558;BME280;12726;49.148;8.582;2023-04-01T11:53:13;99018.03;;;9.90;100.00
24558;BME280;12726;49.148;8.582;2023-04-01T11:56:11;99026.09;;;9.90;100.00
24558;BME280;12726;49.148;8.582;2023-04-01T11:59:29;99043.41;;;9.82;100.00
24558;BME280;12726;49.148;8.582;2023-04-01T12:02:29;99028.88;;;9.95;100.00
24558;BME280;12726;49.148;8.582;2023-04-01T12:05:33;99032.06;;;9.92;100.00
24558;BME280;12726;49.148;8.582;2023-04-01T12:08:29;99046.63;;;9.96;100.00
24558;BME280;12726;49.148;8.582;2023-04-01T12:11:24;99038.91;;;10.00;100.00
24558;BME280;12726;49.148;8.582;2023-04-01T12:14:19;99039.56;;;10.07;100.00
24558;BME280;12726;49.148;8.582;2023-04-01T12:17:09;99041.81;;;10.27;100.00
24558;BME280;12726;49.148;8.582;2023-04-01T12:20:02;99040.28;;;10.47;100.00
24558;BME280;12726;49.148;8.582;2023-04-01T12:23:08;99046.47;;;10.65;100.00
24558;BME280;12726;49.148;8.582;2023-04-01T12:26:04;99047.53;;;10.47;100.00
24558;BME280;12726;49.148;8.582;2023-04-01T12:29:03;99043.13;;;10.41;100.00
24558;BME280;12726;49.148;8.582;2023-04-01T12:31:58;99041.06;;;10.31;100.00
24558;BME280;12726;49.148;8.582;2023-04-01T12:34:58;99053.59;;;10.37;100.00
24558;BME280;12726;49.148;8.582;2023-04-01T12:37:56;99048.09;;;10.32;100.00
24558;BME280;12726;49.148;8.582;2023-04-01T12:40:54;99065.66;;;10.51;100.00
24558;BME280;12726;49.148;8.582;2023-04-01T12:50:37;99047.34;;;10.20;100.00
24558;BME280;12726;49.148;8.582;2023-04-01T12:53:31;99065.41;;;10.36;100.00
24558;BME280;12726;49.148;8.582;2023-04-01T12:56:24;99056.25;;;10.54;100.00
24558;BME280;12726;49.148;8.582;2023-04-01T12:59:31;99058.31;;;10.64;98.36
24558;BME280;12726;49.148;8.582;2023-04-01T13:02:35;99064.56;;;10.52;98.35
24558;BME280;12726;49.148;8.582;2023-04-01T13:05:43;99071.59;;;10.53;98.92
24558;BME280;12726;49.148;8.582;2023-04-01T13:08:42;99079.16;;;10.40;97.61
24558;BME280;12726;49.148;8.582;2023-04-01T13:11:32;99074.44;;;10.47;98.00
24558;BME280;12726;49.148;8.582;2023-04-01T13:14:33;99084.88;;;10.43;98.21
24558;BME280;12726;49.148;8.582;2023-04-01T13:17:26;99092.34;;;10.25;98.82
24558;BME280;12726;49.148;8.582;2023-04-01T13:20:22;99078.69;;;10.14;100.00
24558;BME280;12726;49.148;8.582;2023-04-01T13:23:24;99088.28;;;10.10;100.00
24558;BME280;12726;49.148;8.582;2023-04-01T13:26:19;99087.31;;;10.16;100.00
24558;BME280;12726;49.148;8.582;2023-04-01T13:29:13;99087.69;;;10.20;100.00
24558;BME280;12726;49.148;8.582;2023-04-01T13:32:09;99088.88;;;10.41;100.00
24558;BME280;12726;49.148;8.582;2023-04-01T13:35:12;99087.19;;;10.23;97.43
24558;BME280;12726;49.148;8.582;2023-04-01T13:38:16;99091.63;;;10.29;98.71
24558;BME280;12726;49.148;8.582;2023-04-01T13:41:10;99080.22;;;10.22;97.03
24558;BME280;12726;49.148;8.582;2023-04-01T13:44:07;99093.91;;;10.20;96.88
24558;BME280;12726;49.148;8.582;2023-04-01T13:47:10;99092.56;;;10.23;96.89
24558;BME280;12726;49.148;8.582;2023-04-01T13:50:26;99097.06;;;10.17;96.42
24558;BME280;12726;49.148;8.582;2023-04-01T13:53:40;99090.47;;;10.25;96.83
24558;BME280;12726;49.148;8.582;2023-04-01T13:56:34;99103.44;;;10.28;96.28
24558;BME280;12726;49.148;8.582;2023-04-01T13:59:42;99102.41;;;10.29;96.42
24558;BME280;12726;49.148;8.582;2023-04-01T14:06:02;99078.75;;;10.31;95.47
24558;BME280;12726;49.148;8.582;2023-04-01T14:09:20;99103.03;;;10.19;95.27
24558;BME280;12726;49.148;8.582;2023-04-01T14:12:19;99106.03;;;10.23;94.57
24558;BME280;12726;49.148;8.582;2023-04-01T14:15:19;99107.94;;;10.23;95.66
24558;BME280;12726;49.148;8.582;2023-04-01T14:18:29;99108.97;;;10.22;95.40
24558;BME280;12726;49.148;8.582;2023-04-01T14:21:26;99107.13;;;10.22;97.14
24558;BME280;12726;49.148;8.582;2023-04-01T14:24:22;99102.94;;;10.31;96.56
24558;BME280;12726;49.148;8.582;2023-04-01T14:27:38;99112.50;;;10.10;97.31
24558;BME280;12726;49.148;8.582;2023-04-01T14:30:38;99123.00;;;10.12;99.25
24558;BME280;12726;49.148;8.582;2023-04-01T14:33:34;99122.19;;;10.11;100.00
24558;BME280;12726;49.148;8.582;2023-04-01T14:36:47;99116.97;;;10.05;100.00
24558;BME280;12726;49.148;8.582;2023-04-01T14:39:57;99122.69;;;10.08;100.00
24558;BME280;12726;49.148;8.582;2023-04-01T14:46:16;99119.03;;;9.86;100.00
24558;BME280;12726;49.148;8.582;2023-04-01T14:49:04;99123.09;;;9.89;100.00
24558;BME280;12726;49.148;8.582;2023-04-01T14:52:04;99123.25;;;9.82;100.00
24558;BME280;12726;49.148;8.582;2023-04-01T14:54:54;99132.34;;;9.81;100.00
24558;BME280;12726;49.148;8.582;2023-04-01T14:57:41;99132.13;;;9.82;100.00
24558;BME280;12726;49.148;8.582;2023-04-01T15:00:26;99128.84;;;9.92;100.00
24558;BME280;12726;49.148;8.582;2023-04-01T15:03:26;99130.41;;;10.05;100.00
24558;BME280;12726;49.148;8.582;2023-04-01T15:06:31;99129.13;;;10.07;100.00
24558;BME280;12726;49.148;8.582;2023-04-01T15:09:26;99131.81;;;10.07;100.00
24558;BME280;12726;49.148;8.582;2023-04-01T15:12:21;99125.72;;;10.12;100.00
24558;BME280;12726;49.148;8.582;2023-04-01T15:15:16;99124.16;;;10.28;100.00
24558;BME280;12726;49.148;8.582;2023-04-01T15:18:11;99133.94;;;10.34;100.00
24558;BME280;12726;49.148;8.582;2023-04-01T15:24:16;99131.59;;;10.37;99.98
24558;BME280;12726;49.148;8.582;2023-04-01T15:27:21;99139.56;;;10.32;99.75
24558;BME280;12726;49.148;8.582;2023-04-01T15:30:25;99133.03;;;10.28;99.88
24558;BME280;12726;49.148;8.582;2023-04-01T15:33:28;99137.25;;;10.24;99.62
24558;BME280;12726;49.148;8.582;2023-04-01T15:36:29;99140.06;;;10.29;100.00
24558;BME280;12726;49.148;8.582;2023-04-01T15:39:24;99137.69;;;10.33;99.78
24558;BME280;12726;49.148;8.582;2023-04-01T15:42:28;99142.59;;;10.36;99.51
24558;BME280;12726;49.148;8.582;2023-04-01T15:45:23;99134.47;;;10.19;100.00
24558;BME280;12726;49.148;8.582;2023-04-01T15:48:31;99146.25;;;10.30;100.00
24558;BME280;12726;49.148;8.582;2023-04-01T15:51:41;99146.50;;;10.28;98.93
24558;BME280;12726;49.148;8.582;2023-04-01T15:54:50;99155.81;;;10.37;99.90
24558;BME280;12726;49.148;8.582;2023-04-01T15:57:44;99160.69;;;10.40;98.76
24558;BME280;12726;49.148;8.582;2023-04-01T16:00:31;99160.94;;;10.39;98.42
24558;BME280;12726;49.148;8.582;2023-04-01T16:03:31;99158.00;;;10.40;99.35
24558;BME280;12726;49.148;8.582;2023-04-01T16:09:58;99168.09;;;10.33;98.79
24558;BME280;12726;49.148;8.582;2023-04-01T16:12:58;99158.69;;;10.19;99.43
24558;BME280;12726;49.148;8.582;2023-04-01T16:15:53;99159.84;;;10.11;100.00
24558;BME280;12726;49.148;8.582;2023-04-01T16:18:55;99164.06;;;10.19;100.00
24558;BME280;12726;49.148;8.582;2023-04-01T16:21:48;99172.22;;;10.24;100.00
24558;BME280;12726;49.148;8.582;2023-04-01T16:24:40;99173.63;;;10.27;100.00
24558;BME280;12726;49.148;8.582;2023-04-01T16:27:36;99168.47;;;10.25;99.58
24558;BME280;12726;49.148;8.582;2023-04-01T16:30:35;99175.41;;;10.21;99.89
24558;BME280;12726;49.148;8.582;2023-04-01T16:33:22;99165.13;;;10.18;99.63
24558;BME280;12726;49.148;8.582;2023-04-01T16:36:13;99180.31;;;10.12;99.53